Barnoldswick, United Kingdom
Current Conditions -  °F | °C
As of 1:50 AM on Friday 21 Nov 2014 (Local Time) from EGNM Reporting Station
Moderate Fog Moderate Fog  
Wind Chill: 45°   Ceiling: Unl
Heat Index: 45°   Visibility: 0.18mi
Dew Point: 45°   Wind: 3mph
Humidity: 100%   Direction: NA
Pressure: 30.21"   Gusts: NA
Location:  53.92°N, 2.19°W
Report Text: EGNM 210150Z VRB03KT 0300 R32/0325 FG VV/// 07/07 Q1023
Loading
Personal Weather Stations






























Interactive Weather Map New forecast layout! Learn more

10-Day Weather Forecast

Advertisements
Track Severe Weather on mobile